sensor_id;sensor_type;location;lat;lon;timestamp;P1;durP1;ratioP1;P2;durP2;ratioP2
74162;SDS011;62515;52.758;5.076;2022-08-25T15:15:00;4.30;;;2.85;;
74162;SDS011;62515;52.758;5.076;2022-08-25T15:17:27;3.45;;;2.58;;
74162;SDS011;62515;52.758;5.076;2022-08-25T15:19:54;5.32;;;2.75;;
74162;SDS011;62515;52.758;5.076;2022-08-25T15:22:22;9.02;;;4.35;;
74162;SDS011;62515;52.758;5.076;2022-08-25T15:24:52;4.72;;;3.00;;
74162;SDS011;62515;52.758;5.076;2022-08-25T15:27:20;6.47;;;4.88;;
74162;SDS011;62515;52.758;5.076;2022-08-25T15:29:48;8.82;;;5.40;;
74162;SDS011;62515;52.758;5.076;2022-08-25T15:32:16;8.85;;;6.22;;
74162;SDS011;62515;52.758;5.076;2022-08-25T15:34:44;10.13;;;5.95;;
74162;SDS011;62515;52.758;5.076;2022-08-25T15:37:11;8.55;;;6.18;;
74162;SDS011;62515;52.758;5.076;2022-08-25T15:39:40;10.65;;;7.45;;
74162;SDS011;62515;52.758;5.076;2022-08-25T15:42:09;14.52;;;6.90;;
74162;SDS011;62515;52.758;5.076;2022-08-25T15:44:37;11.57;;;6.85;;
74162;SDS011;62515;52.758;5.076;2022-08-25T15:47:04;10.55;;;6.22;;
74162;SDS011;62515;52.758;5.076;2022-08-25T15:49:39;10.57;;;6.65;;
74162;SDS011;62515;52.758;5.076;2022-08-25T15:52:05;13.90;;;7.60;;
74162;SDS011;62515;52.758;5.076;2022-08-25T15:54:32;18.00;;;7.65;;
74162;SDS011;62515;52.758;5.076;2022-08-25T15:57:01;12.98;;;7.88;;
74162;SDS011;62515;52.758;5.076;2022-08-25T15:59:34;17.17;;;8.60;;
74162;SDS011;62515;52.758;5.076;2022-08-25T16:02:00;11.18;;;6.78;;
74162;SDS011;62515;52.758;5.076;2022-08-25T16:06:58;11.75;;;9.07;;
74162;SDS011;62515;52.758;5.076;2022-08-25T16:09:26;13.13;;;8.38;;
74162;SDS011;62515;52.758;5.076;2022-08-25T16:11:55;12.80;;;8.80;;
74162;SDS011;62515;52.758;5.076;2022-08-25T16:14:29;15.75;;;10.07;;
74162;SDS011;62515;52.758;5.076;2022-08-25T16:16:56;12.98;;;9.75;;
74162;SDS011;62515;52.758;5.076;2022-08-25T16:19:24;13.95;;;10.88;;
74162;SDS011;62515;52.758;5.076;2022-08-25T16:21:51;18.40;;;12.85;;
74162;SDS011;62515;52.758;5.076;2022-08-25T16:24:19;20.88;;;13.80;;
74162;SDS011;62515;52.758;5.076;2022-08-25T16:26:46;17.05;;;12.65;;
74162;SDS011;62515;52.758;5.076;2022-08-25T16:29:14;18.95;;;12.85;;
74162;SDS011;62515;52.758;5.076;2022-08-25T16:31:41;17.00;;;14.32;;
74162;SDS011;62515;52.758;5.076;2022-08-25T16:34:08;28.30;;;17.13;;
74162;SDS011;62515;52.758;5.076;2022-08-25T16:36:36;27.08;;;18.15;;
74162;SDS011;62515;52.758;5.076;2022-08-25T16:39:04;23.83;;;18.83;;
74162;SDS011;62515;52.758;5.076;2022-08-25T16:41:36;29.65;;;19.85;;
74162;SDS011;62515;52.758;5.076;2022-08-25T16:44:06;28.52;;;22.27;;
74162;SDS011;62515;52.758;5.076;2022-08-25T16:46:37;32.40;;;25.90;;
74162;SDS011;62515;52.758;5.076;2022-08-25T16:49:06;38.22;;;26.95;;
74162;SDS011;62515;52.758;5.076;2022-08-25T16:51:35;30.73;;;23.85;;
74162;SDS011;62515;52.758;5.076;2022-08-25T16:54:04;38.17;;;29.85;;
74162;SDS011;62515;52.758;5.076;2022-08-25T16:56:51;38.85;;;28.95;;
74162;SDS011;62515;52.758;5.076;2022-08-25T16:59:20;43.35;;;31.75;;
74162;SDS011;62515;52.758;5.076;2022-08-25T17:01:49;41.22;;;32.70;;
74162;SDS011;62515;52.758;5.076;2022-08-25T17:04:17;39.03;;;30.13;;
74162;SDS011;62515;52.758;5.076;2022-08-25T17:06:46;40.28;;;30.17;;
74162;SDS011;62515;52.758;5.076;2022-08-25T17:09:17;40.75;;;30.23;;
74162;SDS011;62515;52.758;5.076;2022-08-25T17:11:51;40.17;;;28.83;;
74162;SDS011;62515;52.758;5.076;2022-08-25T17:14:22;38.75;;;29.88;;
74162;SDS011;62515;52.758;5.076;2022-08-25T17:16:50;36.17;;;27.25;;
74162;SDS011;62515;52.758;5.076;2022-08-25T17:19:20;41.83;;;33.08;;
74162;SDS011;62515;52.758;5.076;2022-08-25T17:24:16;38.20;;;27.05;;
74162;SDS011;62515;52.758;5.076;2022-08-25T17:26:43;34.60;;;28.73;;
74162;SDS011;62515;52.758;5.076;2022-08-25T17:29:18;34.33;;;25.95;;
74162;SDS011;62515;52.758;5.076;2022-08-25T17:31:45;40.00;;;30.52;;
74162;SDS011;62515;52.758;5.076;2022-08-25T17:34:14;37.53;;;27.15;;
74162;SDS011;62515;52.758;5.076;2022-08-25T17:36:42;42.58;;;29.52;;
74162;SDS011;62515;52.758;5.076;2022-08-25T17:39:10;43.85;;;31.02;;
74162;SDS011;62515;52.758;5.076;2022-08-25T17:41:39;47.97;;;30.45;;
74162;SDS011;62515;52.758;5.076;2022-08-25T17:44:09;34.25;;;25.63;;
74162;SDS011;62515;52.758;5.076;2022-08-25T17:46:37;37.00;;;29.98;;
74162;SDS011;62515;52.758;5.076;2022-08-25T17:49:13;32.28;;;25.02;;
74162;SDS011;62515;52.758;5.076;2022-08-25T17:51:40;40.10;;;26.35;;
74162;SDS011;62515;52.758;5.076;2022-08-25T17:54:07;40.00;;;29.75;;
74162;SDS011;62515;52.758;5.076;2022-08-25T17:56:36;41.35;;;32.22;;
74162;SDS011;62515;52.758;5.076;2022-08-25T17:59:03;48.13;;;33.45;;
74162;SDS011;62515;52.758;5.076;2022-08-25T18:01:30;40.38;;;30.65;;
74162;SDS011;62515;52.758;5.076;2022-08-25T18:04:00;49.55;;;33.33;;
74162;SDS011;62515;52.758;5.076;2022-08-25T18:06:27;46.47;;;36.22;;
74162;SDS011;62515;52.758;5.076;2022-08-25T18:08:55;52.13;;;37.58;;
74162;SDS011;62515;52.758;5.076;2022-08-25T18:11:25;44.75;;;32.58;;
74162;SDS011;62515;52.758;5.076;2022-08-25T18:13:53;47.10;;;34.60;;
74162;SDS011;62515;52.758;5.076;2022-08-25T18:16:20;41.97;;;30.15;;
74162;SDS011;62515;52.758;5.076;2022-08-25T18:18:48;44.83;;;32.45;;
74162;SDS011;62515;52.758;5.076;2022-08-25T18:21:18;52.00;;;33.35;;
74162;SDS011;62515;52.758;5.076;2022-08-25T18:23:47;50.55;;;37.30;;
74162;SDS011;62515;52.758;5.076;2022-08-25T18:26:15;49.53;;;38.33;;
74162;SDS011;62515;52.758;5.076;2022-08-25T18:28:47;53.45;;;38.13;;
74162;SDS011;62515;52.758;5.076;2022-08-25T18:31:14;54.42;;;39.42;;
74162;SDS011;62515;52.758;5.076;2022-08-25T18:33:45;48.80;;;34.92;;
74162;SDS011;62515;52.758;5.076;2022-08-25T18:36:12;52.08;;;38.97;;
74162;SDS011;62515;52.758;5.076;2022-08-25T18:38:40;55.63;;;38.95;;
74162;SDS011;62515;52.758;5.076;2022-08-25T18:41:28;52.88;;;39.40;;
74162;SDS011;62515;52.758;5.076;2022-08-25T18:43:59;56.67;;;37.10;;
74162;SDS011;62515;52.758;5.076;2022-08-25T18:46:26;56.55;;;36.88;;
74162;SDS011;62515;52.758;5.076;2022-08-25T18:48:53;57.20;;;41.33;;
74162;SDS011;62515;52.758;5.076;2022-08-25T18:51:22;58.65;;;37.10;;
74162;SDS011;62515;52.758;5.076;2022-08-25T18:53:50;58.15;;;39.38;;
74162;SDS011;62515;52.758;5.076;2022-08-25T18:56:26;66.10;;;43.40;;
74162;SDS011;62515;52.758;5.076;2022-08-25T18:58:53;73.93;;;49.88;;
74162;SDS011;62515;52.758;5.076;2022-08-25T19:01:19;71.72;;;45.28;;
74162;SDS011;62515;52.758;5.076;2022-08-25T19:03:47;59.53;;;39.38;;
74162;SDS011;62515;52.758;5.076;2022-08-25T19:06:14;55.83;;;37.30;;
74162;SDS011;62515;52.758;5.076;2022-08-25T19:08:41;54.92;;;33.25;;
74162;SDS011;62515;52.758;5.076;2022-08-25T19:11:10;52.70;;;36.28;;
74162;SDS011;62515;52.758;5.076;2022-08-25T19:13:37;51.25;;;35.58;;
74162;SDS011;62515;52.758;5.076;2022-08-25T19:16:08;58.70;;;32.90;;
74162;SDS011;62515;52.758;5.076;2022-08-25T19:18:37;52.35;;;33.60;;
74162;SDS011;62515;52.758;5.076;2022-08-25T19:21:04;42.22;;;28.60;;
74162;SDS011;62515;52.758;5.076;2022-08-25T19:23:31;48.50;;;32.72;;
74162;SDS011;62515;52.758;5.076;2022-08-25T19:25:58;47.15;;;33.42;;
74162;SDS011;62515;52.758;5.076;2022-08-25T19:28:27;45.17;;;31.02;;
74162;SDS011;62515;52.758;5.076;2022-08-25T19:30:53;47.05;;;31.65;;
74162;SDS011;62515;52.758;5.076;2022-08-25T19:33:20;48.30;;;31.45;;
74162;SDS011;62515;52.758;5.076;2022-08-25T19:36:07;44.90;;;31.45;;
74162;SDS011;62515;52.758;5.076;2022-08-25T19:38:35;45.88;;;29.20;;
74162;SDS011;62515;52.758;5.076;2022-08-25T19:41:03;44.47;;;28.50;;
74162;SDS011;62515;52.758;5.076;2022-08-25T19:43:41;42.22;;;25.33;;
74162;SDS011;62515;52.758;5.076;2022-08-25T19:46:22;41.55;;;29.05;;
74162;SDS011;62515;52.758;5.076;2022-08-25T19:48:51;45.50;;;28.08;;
74162;SDS011;62515;52.758;5.076;2022-08-25T19:51:17;45.80;;;29.08;;
74162;SDS011;62515;52.758;5.076;2022-08-25T19:53:47;45.90;;;28.92;;
74162;SDS011;62515;52.758;5.076;2022-08-25T19:56:21;44.92;;;28.85;;
74162;SDS011;62515;52.758;5.076;2022-08-25T19:58:49;48.78;;;29.45;;
74162;SDS011;62515;52.758;5.076;2022-08-25T20:01:16;42.13;;;24.75;;
74162;SDS011;62515;52.758;5.076;2022-08-25T20:03:44;43.42;;;28.35;;
74162;SDS011;62515;52.758;5.076;2022-08-25T20:06:12;45.35;;;28.17;;
74162;SDS011;62515;52.758;5.076;2022-08-25T20:11:08;47.97;;;27.27;;
74162;SDS011;62515;52.758;5.076;2022-08-25T20:13:35;44.33;;;27.23;;
74162;SDS011;62515;52.758;5.076;2022-08-25T20:16:03;53.05;;;26.65;;
74162;SDS011;62515;52.758;5.076;2022-08-25T20:18:31;39.03;;;26.30;;
74162;SDS011;62515;52.758;5.076;2022-08-25T20:20:57;35.90;;;21.42;;
74162;SDS011;62515;52.758;5.076;2022-08-25T20:23:24;40.22;;;24.55;;
74162;SDS011;62515;52.758;5.076;2022-08-25T20:26:10;43.60;;;24.40;;
74162;SDS011;62515;52.758;5.076;2022-08-25T20:28:36;32.83;;;23.20;;
74162;SDS011;62515;52.758;5.076;2022-08-25T20:31:09;39.83;;;21.98;;
74162;SDS011;62515;52.758;5.076;2022-08-25T20:33:36;34.80;;;21.33;;
74162;SDS011;62515;52.758;5.076;2022-08-25T20:36:05;32.88;;;17.60;;
74162;SDS011;62515;52.758;5.076;2022-08-25T20:38:32;30.70;;;18.80;;
74162;SDS011;62515;52.758;5.076;2022-08-25T20:40:59;35.40;;;17.42;;
74162;SDS011;62515;52.758;5.076;2022-08-25T20:43:28;32.85;;;16.95;;
74162;SDS011;62515;52.758;5.076;2022-08-25T20:45:58;33.00;;;16.67;;
74162;SDS011;62515;52.758;5.076;2022-08-25T20:48:27;26.65;;;15.10;;
74162;SDS011;62515;52.758;5.076;2022-08-25T20:50:54;29.20;;;15.05;;
74162;SDS011;62515;52.758;5.076;2022-08-25T20:53:23;26.85;;;14.40;;
74162;SDS011;62515;52.758;5.076;2022-08-25T20:55:51;27.33;;;13.80;;
74162;SDS011;62515;52.758;5.076;2022-08-25T20:58:18;22.50;;;13.10;;
74162;SDS011;62515;52.758;5.076;2022-08-25T21:00:45;25.70;;;12.45;;
74162;SDS011;62515;52.758;5.076;2022-08-25T21:03:12;20.42;;;12.50;;
74162;SDS011;62515;52.758;5.076;2022-08-25T21:05:40;29.00;;;13.07;;
74162;SDS011;62515;52.758;5.076;2022-08-25T21:08:08;27.83;;;11.32;;
74162;SDS011;62515;52.758;5.076;2022-08-25T21:10:36;28.85;;;10.85;;
74162;SDS011;62515;52.758;5.076;2022-08-25T21:13:03;18.30;;;10.25;;
74162;SDS011;62515;52.758;5.076;2022-08-25T21:15:30;19.30;;;8.18;;
74162;SDS011;62515;52.758;5.076;2022-08-25T21:17:56;21.65;;;9.48;;
74162;SDS011;62515;52.758;5.076;2022-08-25T21:20:24;28.23;;;8.98;;
74162;SDS011;62515;52.758;5.076;2022-08-25T21:22:52;20.10;;;9.13;;
74162;SDS011;62515;52.758;5.076;2022-08-25T21:25:19;18.13;;;8.38;;
74162;SDS011;62515;52.758;5.076;2022-08-25T21:27:47;16.00;;;7.88;;
74162;SDS011;62515;52.758;5.076;2022-08-25T21:30:15;15.20;;;6.88;;
74162;SDS011;62515;52.758;5.076;2022-08-25T21:32:42;13.68;;;6.63;;
74162;SDS011;62515;52.758;5.076;2022-08-25T21:35:19;13.65;;;6.15;;
74162;SDS011;62515;52.758;5.076;2022-08-25T21:37:47;14.02;;;6.00;;
74162;SDS011;62515;52.758;5.076;2022-08-25T21:40:20;10.90;;;5.35;;
74162;SDS011;62515;52.758;5.076;2022-08-25T21:42:48;12.18;;;5.30;;
74162;SDS011;62515;52.758;5.076;2022-08-25T21:45:15;11.43;;;6.03;;
74162;SDS011;62515;52.758;5.076;2022-08-25T21:47:46;11.70;;;6.72;;
74162;SDS011;62515;52.758;5.076;2022-08-25T21:50:13;10.75;;;6.40;;
74162;SDS011;62515;52.758;5.076;2022-08-25T21:52:40;11.93;;;6.13;;
74162;SDS011;62515;52.758;5.076;2022-08-25T21:55:08;14.65;;;6.75;;
74162;SDS011;62515;52.758;5.076;2022-08-25T21:57:43;13.40;;;5.95;;
74162;SDS011;62515;52.758;5.076;2022-08-25T22:00:10;14.52;;;6.53;;
74162;SDS011;62515;52.758;5.076;2022-08-25T22:02:38;13.27;;;5.75;;
74162;SDS011;62515;52.758;5.076;2022-08-25T22:05:09;11.57;;;6.07;;
74162;SDS011;62515;52.758;5.076;2022-08-25T22:07:36;13.95;;;5.28;;
74162;SDS011;62515;52.758;5.076;2022-08-25T22:10:07;9.90;;;5.57;;
74162;SDS011;62515;52.758;5.076;2022-08-25T22:12:44;9.05;;;4.95;;
74162;SDS011;62515;52.758;5.076;2022-08-25T22:15:12;12.75;;;5.53;;
74162;SDS011;62515;52.758;5.076;2022-08-25T22:17:40;14.00;;;5.15;;
74162;SDS011;62515;52.758;5.076;2022-08-25T22:20:08;9.40;;;4.35;;
74162;SDS011;62515;52.758;5.076;2022-08-25T22:22:36;8.02;;;4.07;;
74162;SDS011;62515;52.758;5.076;2022-08-25T22:25:03;6.40;;;3.80;;
74162;SDS011;62515;52.758;5.076;2022-08-25T22:27:30;8.80;;;4.13;;
74162;SDS011;62515;52.758;5.076;2022-08-25T22:30:00;8.50;;;4.10;;
74162;SDS011;62515;52.758;5.076;2022-08-25T22:32:28;8.48;;;4.03;;
74162;SDS011;62515;52.758;5.076;2022-08-25T22:34:54;10.40;;;3.95;;
74162;SDS011;62515;52.758;5.076;2022-08-25T22:37:21;7.57;;;3.95;;
74162;SDS011;62515;52.758;5.076;2022-08-25T22:39:48;8.45;;;4.20;;
74162;SDS011;62515;52.758;5.076;2022-08-25T22:42:15;9.45;;;3.78;;
74162;SDS011;62515;52.758;5.076;2022-08-25T22:44:42;12.82;;;4.25;;
74162;SDS011;62515;52.758;5.076;2022-08-25T22:47:10;6.05;;;3.40;;
74162;SDS011;62515;52.758;5.076;2022-08-25T22:49:38;9.15;;;3.28;;
74162;SDS011;62515;52.758;5.076;2022-08-25T22:52:05;9.32;;;2.85;;
74162;SDS011;62515;52.758;5.076;2022-08-25T22:54:38;6.57;;;4.05;;
74162;SDS011;62515;52.758;5.076;2022-08-25T22:57:06;8.27;;;3.53;;
74162;SDS011;62515;52.758;5.076;2022-08-25T22:59:33;14.75;;;4.15;;
74162;SDS011;62515;52.758;5.076;2022-08-25T23:02:00;8.57;;;3.55;;
74162;SDS011;62515;52.758;5.076;2022-08-25T23:04:28;6.88;;;2.83;;
74162;SDS011;62515;52.758;5.076;2022-08-25T23:06:55;6.95;;;2.65;;
74162;SDS011;62515;52.758;5.076;2022-08-25T23:09:22;8.88;;;2.90;;
74162;SDS011;62515;52.758;5.076;2022-08-25T23:11:50;13.10;;;2.97;;
74162;SDS011;62515;52.758;5.076;2022-08-25T23:14:17;8.10;;;2.97;;
74162;SDS011;62515;52.758;5.076;2022-08-25T23:16:44;7.55;;;2.58;;
74162;SDS011;62515;52.758;5.076;2022-08-25T23:19:11;5.68;;;2.13;;
74162;SDS011;62515;52.758;5.076;2022-08-25T23:21:41;6.20;;;2.28;;
74162;SDS011;62515;52.758;5.076;2022-08-25T23:24:28;6.57;;;2.30;;
74162;SDS011;62515;52.758;5.076;2022-08-25T23:26:56;10.00;;;2.80;;
74162;SDS011;62515;52.758;5.076;2022-08-25T23:29:24;7.65;;;2.70;;
74162;SDS011;62515;52.758;5.076;2022-08-25T23:31:51;7.53;;;2.63;;
74162;SDS011;62515;52.758;5.076;2022-08-25T23:34:19;8.35;;;2.75;;
74162;SDS011;62515;52.758;5.076;2022-08-25T23:36:48;7.03;;;2.80;;
74162;SDS011;62515;52.758;5.076;2022-08-25T23:39:15;8.20;;;2.88;;
74162;SDS011;62515;52.758;5.076;2022-08-25T23:41:42;5.90;;;2.50;;
74162;SDS011;62515;52.758;5.076;2022-08-25T23:44:09;5.18;;;2.28;;
74162;SDS011;62515;52.758;5.076;2022-08-25T23:46:42;6.72;;;2.28;;
74162;SDS011;62515;52.758;5.076;2022-08-25T23:49:10;6.20;;;2.30;;
74162;SDS011;62515;52.758;5.076;2022-08-25T23:51:37;5.57;;;1.88;;
74162;SDS011;62515;52.758;5.076;2022-08-25T23:54:09;5.95;;;1.80;;
74162;SDS011;62515;52.758;5.076;2022-08-25T23:56:37;4.57;;;1.85;;
74162;SDS011;62515;52.758;5.076;2022-08-25T23:59:16;5.80;;;1.38;;
